createdAt,value
2018-03-18T06:27:34.865Z,600
2018-03-18T06:28:32.948Z,612
2018-03-18T06:29:32.692Z,624
2018-03-18T06:30:32.917Z,640
2018-03-18T06:31:32.727Z,656
2018-03-18T06:32:33.187Z,676
2018-03-18T06:33:32.871Z,700
2018-03-18T06:34:32.858Z,724
2018-03-18T06:35:32.842Z,756
2018-03-18T06:36:32.616Z,784
2018-03-18T06:37:33.067Z,804
2018-03-18T06:38:32.551Z,832
2018-03-18T06:39:32.814Z,856
2018-03-18T06:40:32.775Z,880
2018-03-18T06:41:32.765Z,908
2018-03-18T06:42:32.755Z,924
2018-03-18T06:43:32.236Z,940
2018-03-18T06:44:32.733Z,960
2018-03-18T06:45:31.947Z,988
2018-03-18T06:46:32.185Z,1020
2018-03-18T06:47:32.436Z,1044
2018-03-18T06:48:32.426Z,1076
2018-03-18T06:49:32.424Z,1112
2018-03-18T06:50:32.649Z,1152
2018-03-18T06:51:32.386Z,1204
2018-03-18T06:52:32.634Z,1256
2018-03-18T06:53:32.606Z,1300
2018-03-18T06:54:32.604Z,1332
2018-03-18T06:55:32.077Z,1356
2018-03-18T06:56:32.572Z,1380
2018-03-18T06:57:33.378Z,1404
2018-03-18T06:58:32.303Z,1432
2018-03-18T06:59:32.279Z,1452
2018-03-18T07:00:32.271Z,1468
2018-03-18T07:01:32.545Z,1484
2018-03-18T07:02:31.999Z,1520
2018-03-18T07:03:32.228Z,1536
2018-03-18T07:04:32.227Z,1548
2018-03-18T07:05:32.215Z,1560
2018-03-18T07:06:32.209Z,1592
2018-03-18T07:07:32.251Z,1620
2018-03-18T07:08:32.165Z,1652
2018-03-18T07:09:32.453Z,1684
2018-03-18T07:10:32.410Z,1700
2018-03-18T07:11:32.424Z,1704
2018-03-18T07:12:32.159Z,1724
2018-03-18T07:13:32.384Z,1752
2018-03-18T07:14:32.404Z,1788
2018-03-18T07:15:32.350Z,1828
2018-03-18T07:16:32.099Z,1868
2018-03-18T07:17:32.078Z,1896
2018-03-18T07:18:32.302Z,1900
2018-03-18T07:19:32.032Z,1904
2018-03-18T07:20:32.034Z,1928
2018-03-18T07:21:32.007Z,1940
2018-03-18T07:22:31.997Z,1960
2018-03-18T07:23:32.406Z,2004
2018-03-18T07:24:31.977Z,2048
2018-03-18T07:25:31.781Z,2076
2018-03-18T07:26:32.251Z,2084
2018-03-18T07:27:33.201Z,2104
2018-03-18T07:28:31.929Z,2136
2018-03-18T07:29:31.668Z,2172
2018-03-18T07:30:31.945Z,2180
2018-03-18T07:31:31.886Z,2172
2018-03-18T07:32:32.144Z,2152
2018-03-18T07:33:31.864Z,2152
2018-03-18T07:34:31.852Z,2160
2018-03-18T07:35:32.108Z,2160
2018-03-18T07:36:31.889Z,2140
2018-03-18T07:37:32.096Z,2112
2018-03-18T07:38:32.140Z,2072
2018-03-18T07:39:32.051Z,2052
2018-03-18T07:40:31.793Z,2044
2018-03-18T07:41:31.787Z,2048
2018-03-18T07:42:31.767Z,2068
2018-03-18T07:43:32.024Z,2080
2018-03-18T07:44:31.735Z,2068
2018-03-18T07:45:31.467Z,2092
2018-03-18T07:46:31.981Z,2120
2018-03-18T07:47:31.707Z,2128
2018-03-18T07:48:31.696Z,2140
2018-03-18T07:49:31.679Z,2168
2018-03-18T07:50:31.673Z,2188
2018-03-18T07:51:31.923Z,2192
2018-03-18T07:52:31.647Z,2208
2018-03-18T07:53:31.654Z,2240
2018-03-18T07:54:31.877Z,2256
2018-03-18T07:55:31.863Z,2300
2018-03-18T07:56:31.594Z,2352
2018-03-18T07:57:31.829Z,2372
2018-03-18T07:58:31.819Z,2412
2018-03-18T07:59:31.819Z,2468
2018-03-18T08:00:31.797Z,2520
2018-03-18T08:01:31.536Z,2572
2018-03-18T08:02:31.551Z,2604
2018-03-18T08:03:31.256Z,2628
2018-03-18T08:04:31.251Z,2660
2018-03-18T08:05:31.485Z,2724
2018-03-18T08:06:31.476Z,2808
2018-03-18T08:07:31.501Z,2920
2018-03-18T08:08:31.711Z,3000
2018-03-18T08:09:31.696Z,3072
2018-03-18T08:10:31.204Z,3140
2018-03-18T08:11:31.418Z,3180
2018-03-18T08:12:31.174Z,3176
2018-03-18T08:13:31.692Z,3176
2018-03-18T08:14:31.660Z,3212
2018-03-18T08:15:31.642Z,3248
2018-03-18T08:16:31.099Z,3248
2018-03-18T08:17:31.598Z,3220
2018-03-18T08:18:31.332Z,3204
2018-03-18T08:19:31.073Z,3212
2018-03-18T08:20:30.799Z,3236
2018-03-18T08:21:31.297Z,3304
2018-03-18T08:22:31.048Z,3364
2018-03-18T08:23:31.022Z,3408
2018-03-18T08:24:31.535Z,3416
2018-03-18T08:25:31.510Z,3472
2018-03-18T08:26:31.239Z,3544
2018-03-18T08:27:31.243Z,3616
2018-03-18T08:28:35.484Z,3736
2018-03-18T08:29:31.477Z,3852
2018-03-18T08:30:31.448Z,3972
2018-03-18T08:31:31.450Z,4148
2018-03-18T08:32:31.185Z,4320
2018-03-18T08:33:31.164Z,4516
2018-03-18T08:34:31.409Z,4744
2018-03-18T08:35:31.404Z,5004
2018-03-18T08:36:31.115Z,5200
2018-03-18T08:37:31.112Z,5364
2018-03-18T08:38:31.095Z,5456
2018-03-18T08:39:30.834Z,5552
2018-03-18T08:40:31.346Z,5748
2018-03-18T08:41:31.113Z,5972
2018-03-18T08:42:31.315Z,6212
2018-03-18T08:43:31.293Z,6344
2018-03-18T08:44:31.288Z,6404
2018-03-18T08:45:31.259Z,6420
2018-03-18T08:46:31.265Z,6288
2018-03-18T08:47:31.250Z,6132
2018-03-18T08:48:30.735Z,5948
2018-03-18T08:49:31.235Z,5732
2018-03-18T08:50:31.207Z,5516
2018-03-18T08:51:31.202Z,5272
2018-03-18T08:52:30.950Z,5048
2018-03-18T08:53:30.922Z,4840
2018-03-18T08:54:31.173Z,4700
2018-03-18T08:55:31.148Z,4652
2018-03-18T08:56:31.133Z,4608
2018-03-18T08:57:30.894Z,4496
2018-03-18T08:58:30.868Z,4480
2018-03-18T08:59:31.299Z,4440
2018-03-18T09:00:30.861Z,4388
2018-03-18T09:01:31.082Z,4388
2018-03-18T09:02:31.082Z,4460
2018-03-18T09:03:31.071Z,4568
2018-03-18T09:04:30.815Z,4660
2018-03-18T09:05:31.047Z,4712
2018-03-18T09:06:31.040Z,4764
2018-03-18T09:07:31.059Z,4824
2018-03-18T09:08:30.812Z,4904
2018-03-18T09:09:31.022Z,5068
2018-03-18T09:10:30.767Z,5156
2018-03-18T09:11:30.964Z,5176
2018-03-18T09:12:30.713Z,5280
2018-03-18T09:13:30.192Z,5380
2018-03-18T09:14:31.178Z,5452
2018-03-18T09:15:30.922Z,5536
2018-03-18T09:16:30.401Z,5696
2018-03-18T09:17:30.663Z,5792
2018-03-18T09:18:30.887Z,5868
2018-03-18T09:19:30.631Z,5896
2018-03-18T09:20:30.620Z,5932
2018-03-18T09:21:30.600Z,6016
2018-03-18T09:22:30.866Z,6040
2018-03-18T09:23:30.841Z,6000
2018-03-18T09:24:30.562Z,6000
2018-03-18T09:25:30.831Z,6116
2018-03-18T09:26:30.579Z,6188
2018-03-18T09:27:30.785Z,6220
2018-03-18T09:28:30.794Z,6236
2018-03-18T09:29:30.834Z,6236
2018-03-18T09:30:30.496Z,6280
2018-03-18T09:31:30.740Z,6372
2018-03-18T09:32:30.732Z,6436
2018-03-18T09:33:30.479Z,6640
2018-03-18T09:34:30.478Z,6788
2018-03-18T09:35:30.696Z,6836
2018-03-18T09:36:30.680Z,6988
2018-03-18T09:37:30.699Z,7100
2018-03-18T09:38:30.733Z,7256
2018-03-18T09:39:30.683Z,7352
2018-03-18T09:40:30.640Z,7476
2018-03-18T09:41:30.392Z,7660
2018-03-18T09:42:30.374Z,7832
2018-03-18T09:43:30.412Z,8096
2018-03-18T09:44:34.640Z,8228
2018-03-18T09:45:30.321Z,8280
2018-03-18T09:46:30.087Z,8300
2018-03-18T09:47:30.319Z,8308
2018-03-18T09:48:30.567Z,8232
2018-03-18T09:49:30.554Z,8144
2018-03-18T09:50:30.537Z,8016
2018-03-18T09:51:30.317Z,7892
2018-03-18T09:52:30.254Z,7896
2018-03-18T09:53:30.492Z,7976
2018-03-18T09:54:31.032Z,8096
2018-03-18T09:55:30.230Z,8252
2018-03-18T09:56:30.587Z,8500
2018-03-18T09:57:30.475Z,8772
2018-03-18T09:58:30.437Z,9024
2018-03-18T09:59:30.173Z,9248
2018-03-18T10:00:30.161Z,9436
2018-03-18T10:01:30.421Z,9876
2018-03-18T10:02:30.437Z,10356
2018-03-18T10:03:30.142Z,10912
2018-03-18T10:04:29.870Z,11452
2018-03-18T10:05:30.115Z,11944
2018-03-18T10:06:30.363Z,12280
2018-03-18T10:07:30.103Z,12496
2018-03-18T10:08:29.829Z,12692
2018-03-18T10:09:29.561Z,12708
2018-03-18T10:10:29.803Z,12564
2018-03-18T10:11:30.554Z,12328
2018-03-18T10:12:30.311Z,12156
2018-03-18T10:13:29.775Z,11660
2018-03-18T10:14:30.270Z,11024
2018-03-18T10:15:30.322Z,10632
2018-03-18T10:16:30.006Z,10200
2018-03-18T10:17:30.002Z,9704
2018-03-18T10:18:30.240Z,9260
2018-03-18T10:19:30.230Z,8940
2018-03-18T10:20:30.105Z,8524
2018-03-18T10:21:29.960Z,8188
2018-03-18T10:22:30.229Z,7956
2018-03-18T10:23:29.941Z,7764
2018-03-18T10:24:30.191Z,7608
2018-03-18T10:25:29.657Z,7504
2018-03-18T10:26:30.173Z,7528
2018-03-18T10:27:30.171Z,7660
2018-03-18T10:28:30.153Z,7808
2018-03-18T10:58:33.334Z,10492
2018-03-18T10:59:33.307Z,10460
2018-03-18T11:00:33.047Z,10496
2018-03-18T11:01:33.280Z,10880
2018-03-18T11:02:32.766Z,11480
2018-03-18T11:03:33.258Z,11972
2018-03-18T11:04:33.251Z,12528
2018-03-18T11:05:33.238Z,12888
2018-03-18T11:06:32.960Z,13236
2018-03-18T11:07:32.443Z,13556
2018-03-18T11:08:32.958Z,13696
2018-03-18T11:09:32.940Z,14004
2018-03-18T11:10:32.947Z,14608
2018-03-18T11:11:32.909Z,15232
2018-03-18T11:12:33.182Z,15536
2018-03-18T11:13:33.940Z,15732
2018-03-18T11:14:32.625Z,15612
2018-03-18T11:15:33.132Z,14832
2018-03-18T11:16:33.139Z,14244
2018-03-18T11:17:32.601Z,13792
2018-03-18T11:18:32.613Z,13356
2018-03-18T11:19:32.591Z,13068
2018-03-18T11:20:33.079Z,12600
2018-03-18T11:21:33.078Z,12148
2018-03-18T11:22:32.564Z,11768
2018-03-18T11:23:32.802Z,11536
2018-03-18T11:24:32.529Z,11508
2018-03-18T11:25:33.025Z,11596
2018-03-18T11:26:32.779Z,11704
2018-03-18T11:27:33.029Z,11592
2018-03-18T11:28:33.223Z,11528
2018-03-18T11:29:32.752Z,11680
2018-03-18T11:30:32.224Z,11648
2018-03-18T11:31:32.731Z,11508
2018-03-18T11:32:32.724Z,11376
2018-03-18T11:33:32.956Z,11400
2018-03-18T11:34:32.693Z,11508
2018-03-18T11:35:32.949Z,11488
2018-03-18T11:36:32.689Z,11376
2018-03-18T11:37:32.931Z,11448
2018-03-18T11:38:32.941Z,11536
2018-03-18T11:39:32.660Z,11568
2018-03-18T11:40:32.896Z,11768
2018-03-18T11:41:32.878Z,11788
2018-03-18T11:42:32.374Z,11652
2018-03-18T11:43:36.752Z,11500
2018-03-18T11:44:32.875Z,11556
2018-03-18T11:45:32.844Z,11740
2018-03-18T11:46:32.607Z,11828
2018-03-18T11:47:32.587Z,11688
2018-03-18T11:48:32.823Z,11452
2018-03-18T11:49:32.393Z,11040
2018-03-18T11:50:32.559Z,10620
2018-03-18T11:51:32.539Z,10356
2018-03-18T11:52:32.295Z,10164
2018-03-18T11:53:32.815Z,10044
2018-03-18T11:54:32.518Z,9892
2018-03-18T11:55:32.246Z,9852
2018-03-18T11:56:32.496Z,9868
2018-03-18T11:57:32.561Z,9844
2018-03-18T11:58:32.514Z,9728
2018-03-18T11:59:32.744Z,9644
2018-03-18T12:00:32.204Z,9584
2018-03-18T12:01:32.705Z,9528
2018-03-18T12:02:32.710Z,9476
2018-03-18T12:03:32.682Z,9320
2018-03-18T12:04:32.432Z,9036
2018-03-18T12:05:32.415Z,8756
2018-03-18T12:06:32.669Z,8640
2018-03-18T12:07:32.650Z,8664
2018-03-18T12:08:32.657Z,8708
2018-03-18T12:09:32.634Z,8680
2018-03-18T12:10:32.626Z,8520
2018-03-18T12:11:32.609Z,8424
2018-03-18T12:12:32.604Z,8612
2018-03-18T12:13:31.827Z,8940
2018-03-18T12:14:33.868Z,9148
2018-03-18T12:15:32.611Z,9180
2018-03-18T12:16:32.315Z,9144
2018-03-18T12:17:32.548Z,9004
2018-03-18T12:18:32.032Z,8844
2018-03-18T12:19:32.753Z,8716
2018-03-18T12:20:32.283Z,8652
2018-03-18T12:21:32.515Z,8644
2018-03-18T12:22:32.256Z,8728
2018-03-18T12:23:32.501Z,8864
2018-03-18T12:24:32.251Z,9016
2018-03-18T12:25:32.273Z,9124
2018-03-18T12:26:32.477Z,9152
2018-03-18T12:27:32.475Z,9180
2018-03-18T12:28:32.520Z,9188
2018-03-18T12:29:32.581Z,9092
2018-03-18T12:30:32.174Z,8848
2018-03-18T12:31:32.433Z,8500
2018-03-18T12:32:32.417Z,8060
2018-03-18T12:33:32.409Z,7588
2018-03-18T12:34:32.396Z,7148
2018-03-18T12:35:32.403Z,6732
2018-03-18T12:36:32.379Z,6304
2018-03-18T12:37:32.118Z,5900
2018-03-18T12:38:32.378Z,5532
2018-03-18T12:39:32.356Z,5284
2018-03-18T12:40:32.354Z,5140
2018-03-18T12:41:32.076Z,5124
2018-03-18T12:42:32.129Z,5196
2018-03-18T12:43:32.321Z,5320
2018-03-18T12:44:33.617Z,5440
2018-03-18T12:45:32.057Z,5492
2018-03-18T12:46:32.287Z,5448
2018-03-18T12:47:32.269Z,5336
2018-03-18T12:48:31.746Z,5224
2018-03-18T12:49:32.060Z,5184
2018-03-18T12:50:31.766Z,5240
2018-03-18T12:51:32.230Z,5376
2018-03-18T12:52:31.960Z,5564
2018-03-18T12:53:32.206Z,5776
2018-03-18T12:54:31.943Z,6052
2018-03-18T12:55:31.678Z,6348
2018-03-18T12:56:31.920Z,6532
2018-03-18T12:57:32.165Z,6664
2018-03-18T12:58:31.905Z,6844
2018-03-18T12:59:33.826Z,7024
2018-03-18T13:00:32.238Z,7336
2018-03-18T13:01:32.128Z,7768
2018-03-18T13:02:32.149Z,8072
2018-03-18T13:03:31.599Z,8196
2018-03-18T13:04:32.120Z,8172
2018-03-18T13:05:31.816Z,8148
2018-03-18T13:06:31.810Z,8216
2018-03-18T13:07:32.082Z,8324
2018-03-18T13:08:31.800Z,8340
2018-03-18T13:09:32.039Z,8300
2018-03-18T13:10:31.691Z,8328
2018-03-18T13:11:31.774Z,8476
2018-03-18T13:12:32.007Z,8644
2018-03-18T13:13:31.990Z,8756
2018-03-18T13:14:31.507Z,8812
2018-03-18T13:15:31.983Z,8872
2018-03-18T13:16:31.737Z,8944
2018-03-18T13:17:31.955Z,8968
2018-03-18T13:18:31.439Z,8884
2018-03-18T13:19:31.435Z,8704
2018-03-18T13:20:31.684Z,8576
2018-03-18T13:21:31.669Z,8488
2018-03-18T13:22:31.406Z,8372
2018-03-18T13:23:31.904Z,8264
2018-03-18T13:24:31.896Z,8240
2018-03-18T13:25:31.901Z,8280
2018-03-18T13:26:31.667Z,8268
2018-03-18T13:27:31.721Z,8156
2018-03-18T13:28:31.852Z,8016
2018-03-18T13:29:31.584Z,7896
2018-03-18T13:30:31.910Z,7808
2018-03-18T13:31:31.320Z,7736
2018-03-18T13:32:31.577Z,7632
2018-03-18T13:33:31.804Z,7560
2018-03-18T13:34:31.798Z,7444
2018-03-18T13:35:31.806Z,7308
2018-03-18T13:36:31.771Z,7180
2018-03-18T13:37:31.765Z,7096
2018-03-18T13:38:31.503Z,7048
2018-03-18T13:39:31.507Z,6996
2018-03-18T13:40:31.479Z,6932
2018-03-18T13:41:31.736Z,6784
2018-03-18T13:42:31.716Z,6640
2018-03-18T13:43:31.703Z,6540
2018-03-18T13:44:31.691Z,6444
2018-03-18T13:45:34.886Z,6308
2018-03-18T13:46:31.683Z,6172
2018-03-18T13:47:31.683Z,6068
2018-03-18T13:48:31.655Z,6040
2018-03-18T13:49:31.389Z,6020
2018-03-18T13:50:31.128Z,5956
2018-03-18T13:51:31.636Z,5920
2018-03-18T13:52:31.370Z,5948
2018-03-18T13:53:31.609Z,5960
2018-03-18T13:54:31.156Z,5944
2018-03-18T13:55:31.351Z,5936
2018-03-18T13:56:31.581Z,5948
2018-03-18T13:57:31.312Z,5964
2018-03-18T13:58:31.295Z,5888
2018-03-18T13:59:31.560Z,5752
2018-03-18T14:00:31.548Z,5684
2018-03-18T14:01:31.349Z,5676
2018-03-18T14:02:31.523Z,5592
2018-03-18T14:03:31.247Z,5468
2018-03-18T14:04:31.012Z,5388
2018-03-18T14:05:31.240Z,5368
2018-03-18T14:06:31.492Z,5360
2018-03-18T14:07:31.475Z,5272
2018-03-18T14:08:31.466Z,5132
2018-03-18T14:09:30.683Z,5088
2018-03-18T14:10:31.183Z,5084
2018-03-18T14:11:31.438Z,5060
2018-03-18T14:12:31.179Z,5052
2018-03-18T14:13:30.953Z,5040
2018-03-18T14:14:30.886Z,4976
2018-03-18T14:15:31.387Z,4872
2018-03-18T14:16:33.226Z,4816
2018-03-18T14:17:31.400Z,4804
2018-03-18T14:18:31.344Z,4796
2018-03-18T14:19:31.344Z,4764
2018-03-18T14:20:31.332Z,4752
2018-03-18T14:21:31.322Z,4728
2018-03-18T14:22:31.072Z,4696
2018-03-18T14:23:31.301Z,4652
2018-03-18T14:24:31.286Z,4604
2018-03-18T14:25:31.023Z,4592
2018-03-18T14:26:31.294Z,4588
2018-03-18T14:27:31.016Z,4588
2018-03-18T14:28:31.256Z,4548
2018-03-18T14:29:30.776Z,4496
2018-03-18T14:30:31.226Z,4424
2018-03-18T14:31:31.116Z,4404
2018-03-18T14:32:31.265Z,4420
2018-03-18T14:33:31.030Z,4460
2018-03-18T14:34:30.697Z,4488
2018-03-18T14:35:31.178Z,4480
2018-03-18T14:36:30.920Z,4460
2018-03-18T14:37:30.972Z,4412
2018-03-18T14:38:31.155Z,4360
2018-03-18T14:39:31.166Z,4332
2018-03-18T14:40:30.628Z,4316
2018-03-18T14:41:30.872Z,4300
2018-03-18T14:42:30.608Z,4292
2018-03-18T14:43:30.837Z,4272
2018-03-18T14:44:31.090Z,4248
2018-03-18T14:45:31.071Z,4232
2018-03-18T14:46:31.314Z,4232
2018-03-18T14:47:30.804Z,4244
2018-03-18T14:48:31.052Z,4212
2018-03-18T14:49:30.787Z,4188
2018-03-18T14:50:30.782Z,4152
2018-03-18T14:51:30.802Z,4088
2018-03-18T14:52:31.122Z,4040
2018-03-18T14:53:31.011Z,4024
2018-03-18T14:54:31.023Z,4020
2018-03-18T14:55:30.984Z,4020
2018-03-18T14:56:30.965Z,3956
2018-03-18T14:57:30.722Z,3892
2018-03-18T14:58:30.815Z,3824
2018-03-18T14:59:30.710Z,3792
2018-03-18T15:00:30.686Z,3764
2018-03-18T15:01:31.029Z,3720
2018-03-18T15:02:30.396Z,3696
2018-03-18T15:03:30.702Z,3692
2018-03-18T15:04:30.647Z,3712
2018-03-18T15:05:30.887Z,3732
2018-03-18T15:06:30.612Z,3748
2018-03-18T15:07:30.870Z,3740
2018-03-18T15:08:30.620Z,3728
2018-03-18T15:09:30.829Z,3720
2018-03-18T15:10:30.836Z,3716
2018-03-18T15:11:30.558Z,3684
2018-03-18T15:12:30.295Z,3620
2018-03-18T15:13:30.545Z,3580
2018-03-18T15:14:30.802Z,3552
2018-03-18T15:15:30.802Z,3524
2018-03-18T15:16:33.223Z,3476
2018-03-18T15:17:30.819Z,3412
2018-03-18T15:18:30.594Z,3376
2018-03-18T15:19:30.750Z,3316
2018-03-18T15:20:30.723Z,3248
2018-03-18T15:21:30.717Z,3180
2018-03-18T15:22:30.742Z,3140
2018-03-18T15:23:30.715Z,3096
2018-03-18T15:24:30.428Z,3040
2018-03-18T15:25:30.409Z,2984
2018-03-18T15:26:30.414Z,2940
2018-03-18T15:27:30.139Z,2904
2018-03-18T15:28:30.126Z,2884
2018-03-18T15:29:29.873Z,2868
2018-03-18T15:30:30.396Z,2856
2018-03-18T15:31:30.804Z,2856
2018-03-18T15:32:30.601Z,2852
2018-03-18T15:33:30.076Z,2844
2018-03-18T15:34:30.581Z,2800
2018-03-18T15:35:30.314Z,2720
2018-03-18T15:36:30.301Z,2620
2018-03-18T15:37:30.546Z,2556
2018-03-18T15:38:30.295Z,2528
2018-03-18T15:39:30.019Z,2472
2018-03-18T15:40:30.535Z,2396
2018-03-18T15:41:30.251Z,2364
2018-03-18T15:42:30.249Z,2380
2018-03-18T15:43:29.966Z,2404
2018-03-18T15:44:30.268Z,2408
2018-03-18T15:45:30.292Z,2384
2018-03-18T15:46:31.025Z,2360
2018-03-18T15:47:30.475Z,2344
2018-03-18T15:48:30.171Z,2340
2018-03-18T15:49:30.164Z,2308
2018-03-18T15:50:30.142Z,2212
2018-03-18T15:51:30.146Z,2104
2018-03-18T15:52:30.375Z,2044
2018-03-18T15:53:30.406Z,2020
2018-03-18T15:54:30.110Z,1984
2018-03-18T15:55:30.358Z,1928
2018-03-18T15:56:30.333Z,1872
2018-03-18T15:57:30.324Z,1824
2018-03-18T15:58:30.366Z,1808
2018-03-18T15:59:30.065Z,1796
2018-03-18T16:00:30.351Z,1796
2018-03-18T16:01:30.362Z,1780
2018-03-18T16:02:30.028Z,1728
2018-03-18T16:03:30.267Z,1644
2018-03-18T16:04:29.743Z,1560
2018-03-18T16:05:30.267Z,1492
2018-03-18T16:06:29.973Z,1448
2018-03-18T16:07:29.972Z,1408
2018-03-18T16:08:30.210Z,1384
2018-03-18T16:09:29.948Z,1356
2018-03-18T16:10:29.944Z,1320
2018-03-18T16:11:29.721Z,1280
2018-03-18T16:12:29.910Z,1264
2018-03-18T16:13:29.922Z,1260
2018-03-18T16:14:29.892Z,1268
2018-03-18T16:15:30.141Z,1284
2018-03-18T16:16:29.612Z,1276
2018-03-18T16:17:29.857Z,1236
2018-03-18T16:18:29.649Z,1192
2018-03-18T16:19:29.590Z,1148
2018-03-18T16:20:30.080Z,1120
2018-03-18T16:21:29.565Z,1104
2018-03-18T16:22:29.800Z,1108
2018-03-18T16:23:29.802Z,1104
2018-03-18T16:24:29.796Z,1096
2018-03-18T16:25:29.818Z,1076
2018-03-18T16:26:30.007Z,1060
2018-03-18T16:27:29.746Z,1044
2018-03-18T16:28:30.004Z,1020
2018-03-18T16:29:30.083Z,996
2018-03-18T16:30:29.594Z,972
2018-03-18T16:31:29.714Z,952
2018-03-18T16:32:29.439Z,928
2018-03-18T16:33:29.687Z,912
2018-03-18T16:34:29.675Z,900
2018-03-18T16:35:29.928Z,888
2018-03-18T16:36:29.741Z,872
2018-03-18T16:37:29.888Z,844
2018-03-18T16:38:29.744Z,824
2018-03-18T16:39:29.876Z,796
2018-03-18T16:40:29.866Z,776
2018-03-18T16:41:29.342Z,756
2018-03-18T16:42:29.834Z,736
2018-03-18T16:43:29.830Z,712
2018-03-18T16:44:29.555Z,696
2018-03-18T16:45:29.812Z,676
2018-03-18T16:46:29.284Z,664
2018-03-18T16:47:30.839Z,644
2018-03-18T16:48:29.531Z,620
2018-03-18T16:49:29.238Z,596
2018-03-18T16:50:29.831Z,564
2018-03-18T16:51:29.216Z,536
2018-03-18T16:52:29.844Z,508
2018-03-18T16:53:29.449Z,488
2018-03-18T16:54:29.721Z,468
2018-03-18T16:55:29.429Z,452
2018-03-18T16:56:29.421Z,444
2018-03-18T16:57:29.413Z,428
2018-03-18T16:58:29.666Z,416
2018-03-18T16:59:29.378Z,404
2018-03-18T17:00:29.638Z,384
2018-03-18T17:01:29.434Z,372
2018-03-18T17:02:29.398Z,356
2018-03-18T17:03:29.594Z,340
2018-03-18T17:04:29.321Z,324
2018-03-18T17:05:29.318Z,308
2018-03-18T17:06:29.605Z,296
2018-03-18T17:07:29.286Z,280
2018-03-18T17:08:29.540Z,272
2018-03-18T17:09:29.570Z,260
2018-03-18T17:10:29.256Z,248
2018-03-18T17:11:28.995Z,232
2018-03-18T17:12:29.492Z,220
2018-03-18T17:13:29.222Z,204
2018-03-18T17:14:29.223Z,192
2018-03-18T17:15:29.198Z,180
2018-03-18T17:16:29.191Z,172
2018-03-18T17:17:31.593Z,164
2018-03-18T17:18:29.166Z,156
2018-03-18T17:19:29.156Z,148
2018-03-18T17:20:29.140Z,140
2018-03-18T17:21:29.395Z,132
2018-03-18T17:22:29.134Z,120
2018-03-18T17:23:29.117Z,112
2018-03-18T17:24:29.356Z,104
2018-03-18T17:25:29.082Z,92
2018-03-18T17:26:29.466Z,84
2018-03-18T17:27:29.095Z,80
2018-03-18T17:28:29.317Z,72
2018-03-18T17:29:29.318Z,64
2018-03-18T17:30:29.287Z,60
2018-03-18T17:31:29.264Z,52
2018-03-18T17:32:28.750Z,48
2018-03-18T17:33:29.009Z,44
2018-03-18T17:34:29.238Z,36
2018-03-18T17:35:28.717Z,32
2018-03-18T17:36:29.244Z,32
2018-03-18T17:37:28.692Z,28
2018-03-18T17:38:28.678Z,24
2018-03-18T17:39:28.662Z,20
2018-03-18T17:40:29.160Z,20
2018-03-18T17:41:28.742Z,16
2018-03-18T17:42:28.634Z,12
2018-03-18T17:43:28.658Z,12
2018-03-18T17:44:28.608Z,12
2018-03-18T17:45:28.892Z,12
2018-03-18T17:46:29.094Z,8
2018-03-18T17:47:28.820Z,8
2018-03-18T17:48:29.417Z,4
2018-03-18T17:49:28.861Z,4
2018-03-18T17:50:29.042Z,4
2018-03-18T17:51:28.542Z,4
2018-03-18T17:52:28.526Z,4
2018-03-18T17:53:28.765Z,4
2018-03-18T17:54:28.740Z,0
2018-03-18T17:55:29.677Z,0
2018-03-18T17:56:28.923Z,4
2018-03-18T17:57:29.069Z,4
2018-03-18T17:58:28.910Z,4
2018-03-18T17:59:28.184Z,4
2018-03-18T18:00:30.013Z,4
2018-03-18T18:01:28.979Z,4
2018-03-18T18:02:28.666Z,4
2018-03-18T18:03:28.633Z,4
2018-03-18T18:04:28.626Z,4
2018-03-18T18:05:28.885Z,0
2018-03-18T18:06:28.866Z,0
2018-03-18T18:07:28.856Z,0
2018-03-18T18:08:28.578Z,0
2018-03-18T18:09:28.318Z,0
2018-03-18T18:10:28.551Z,0
2018-03-18T18:11:28.862Z,0
2018-03-18T18:12:28.805Z,0
2018-03-18T18:13:30.128Z,0
2018-03-18T18:14:28.534Z,0
2018-03-18T18:15:28.011Z,0
2018-03-18T18:16:28.227Z,0
2018-03-18T18:17:28.740Z,0
2018-03-18T18:18:29.817Z,0
2018-03-18T18:19:28.702Z,0
2018-03-18T18:20:28.438Z,0
2018-03-18T18:21:28.431Z,0
2018-03-18T18:22:28.698Z,0
2018-03-18T18:23:28.198Z,0
2018-03-18T18:24:28.695Z,0
2018-03-18T18:25:28.398Z,0
2018-03-18T18:26:28.376Z,0
2018-03-18T18:27:28.380Z,0
2018-03-18T18:28:28.447Z,0
2018-03-18T18:29:28.331Z,0
2018-03-18T18:30:28.329Z,0
2018-03-18T18:31:28.554Z,0
2018-03-18T18:32:28.320Z,0
2018-03-18T18:33:28.590Z,0
2018-03-18T18:34:28.532Z,0
2018-03-18T18:35:28.523Z,0
2018-03-18T18:36:28.014Z,0
2018-03-18T18:37:28.496Z,0
2018-03-18T18:38:28.533Z,0
2018-03-18T18:39:28.476Z,0
2018-03-18T18:40:27.946Z,0
2018-03-18T18:41:28.447Z,0
2018-03-18T18:42:28.184Z,0
2018-03-18T18:43:28.291Z,0
2018-03-18T18:44:28.425Z,0
2018-03-18T18:45:28.394Z,0
2018-03-18T18:46:28.396Z,0
2018-03-18T18:47:28.379Z,0
2018-03-18T18:48:28.119Z,0
2018-03-18T18:49:33.922Z,0
2018-03-18T18:50:28.086Z,0
2018-03-18T18:51:28.340Z,0
2018-03-18T18:52:28.319Z,0
2018-03-18T18:53:28.306Z,0
2018-03-18T18:54:27.784Z,0
2018-03-18T18:55:28.061Z,0
2018-03-18T18:56:27.778Z,0
2018-03-18T18:57:28.287Z,0
2018-03-18T18:58:28.243Z,0
2018-03-18T18:59:28.235Z,0
2018-03-18T19:00:27.982Z,0
2018-03-18T19:01:28.210Z,0
2018-03-18T19:02:28.229Z,0
2018-03-18T19:03:28.196Z,0
2018-03-18T19:04:27.919Z,0
2018-03-18T19:05:27.919Z,0
2018-03-18T19:06:28.198Z,0
2018-03-18T19:07:27.997Z,0
2018-03-18T19:08:27.611Z,0
2018-03-18T19:09:28.110Z,0
2018-03-18T19:10:27.599Z,0
2018-03-18T19:11:27.839Z,0
2018-03-18T19:12:27.605Z,0
2018-03-18T19:13:27.554Z,0
2018-03-18T19:14:28.068Z,0
2018-03-18T19:15:27.799Z,0
2018-03-18T19:16:27.571Z,0
2018-03-18T19:17:28.016Z,0
2018-03-18T19:18:27.999Z,0
2018-03-18T19:19:27.991Z,0
2018-03-18T19:20:27.464Z,0
2018-03-18T19:21:27.472Z,0
2018-03-18T19:22:27.709Z,0
2018-03-18T19:23:27.688Z,0
2018-03-18T19:24:27.942Z,0
2018-03-18T19:25:27.662Z,0
2018-03-18T19:26:27.663Z,0
2018-03-18T19:27:27.642Z,0
2018-03-18T19:28:27.634Z,0
2018-03-18T19:29:27.663Z,0
2018-03-18T19:30:27.609Z,0
2018-03-18T19:31:27.851Z,0
2018-03-18T19:32:27.843Z,0
2018-03-18T19:33:27.565Z,0
2018-03-18T19:34:27.574Z,0
2018-03-18T19:35:27.540Z,0
2018-03-18T19:36:27.586Z,0
2018-03-18T19:37:27.587Z,0
2018-03-18T19:38:27.512Z,0
2018-03-18T19:39:27.501Z,0
2018-03-18T19:40:27.813Z,0
2018-03-18T19:41:27.216Z,0
2018-03-18T19:42:27.456Z,0
2018-03-18T19:43:27.697Z,0
2018-03-18T19:44:27.700Z,0
2018-03-18T19:45:27.550Z,0
2018-03-18T19:46:27.410Z,0
2018-03-18T19:47:27.167Z,0
2018-03-18T19:48:27.137Z,0
2018-03-18T19:49:27.382Z,0
2018-03-18T19:50:28.886Z,0
2018-03-18T19:51:27.613Z,0
2018-03-18T19:52:27.646Z,0
2018-03-18T19:53:27.466Z,0
2018-03-18T19:54:27.634Z,0
2018-03-18T19:55:27.570Z,0
2018-03-18T19:56:27.663Z,0
2018-03-18T19:57:27.542Z,0
2018-03-18T19:58:27.005Z,0
2018-03-18T19:59:27.617Z,0
2018-03-18T20:00:27.239Z,0
2018-03-18T20:01:27.242Z,0
2018-03-18T20:02:27.225Z,0
2018-03-18T20:03:27.541Z,0
2018-03-18T20:04:26.939Z,0
2018-03-18T20:05:27.209Z,0
2018-03-18T20:06:27.426Z,0
2018-03-18T20:07:27.413Z,0
2018-03-18T20:08:26.898Z,0
2018-03-18T20:09:26.884Z,0
2018-03-18T20:10:27.145Z,0
2018-03-18T20:11:27.366Z,0
2018-03-18T20:12:27.375Z,0
2018-03-18T20:13:27.337Z,0
2018-03-18T20:14:27.340Z,0
2018-03-18T20:15:27.315Z,0
2018-03-18T20:16:27.306Z,0
2018-03-18T20:17:27.295Z,0
2018-03-18T20:18:27.021Z,0
2018-03-18T20:19:27.282Z,0
2018-03-18T20:20:27.456Z,0
2018-03-18T20:21:27.266Z,0
2018-03-18T20:22:26.978Z,0
2018-03-18T20:23:26.977Z,0
2018-03-18T20:24:26.710Z,0
2018-03-18T20:25:26.941Z,0
2018-03-18T20:26:26.686Z,0
2018-03-18T20:27:27.180Z,0
2018-03-18T20:28:26.905Z,0
2018-03-18T20:29:26.909Z,0
2018-03-18T20:30:26.642Z,0
2018-03-18T20:31:26.917Z,0
2018-03-18T20:32:26.884Z,0